createdAt,value
2018-03-02T00:01:28.746Z,12.03
2018-03-02T00:03:32.106Z,10.73
2018-03-02T00:05:36.239Z,9.60
2018-03-02T00:07:39.599Z,10.90
2018-03-02T00:09:43.747Z,11.33
2018-03-02T00:11:47.112Z,10.27
2018-03-02T00:13:50.474Z,9.43
2018-03-02T00:15:54.612Z,11.17
2018-03-02T00:17:58.008Z,11.10
2018-03-02T00:20:01.377Z,10.70
2018-03-02T00:22:05.514Z,10.70
2018-03-02T00:24:08.928Z,11.13
2018-03-02T00:26:12.294Z,11.63
2018-03-02T00:28:15.655Z,11.37
2018-03-02T00:30:19.018Z,9.90
2018-03-02T00:32:22.373Z,11.70
2018-03-02T00:34:25.750Z,12.80
2018-03-02T00:36:29.122Z,13.30
2018-03-02T00:38:32.482Z,12.33
2018-03-02T00:40:35.856Z,12.87
2018-03-02T00:42:39.225Z,12.33
2018-03-02T00:44:42.642Z,11.83
2018-03-02T00:46:46.000Z,11.60
2018-03-02T00:48:50.135Z,11.27
2018-03-02T00:50:53.508Z,10.53
2018-03-02T00:52:56.885Z,12.50
2018-03-02T00:55:01.037Z,12.60
2018-03-02T00:57:04.410Z,13.13
2018-03-02T00:59:07.857Z,11.73
2018-03-02T01:01:11.216Z,11.67
2018-03-02T01:03:14.623Z,10.37
2018-03-02T01:05:18.025Z,13.57
2018-03-02T01:07:21.389Z,11.77
2018-03-02T01:09:24.765Z,11.17
2018-03-02T01:11:28.161Z,12.73
2018-03-02T01:13:31.526Z,12.07
2018-03-02T01:15:35.666Z,10.70
2018-03-02T01:17:39.035Z,10.63
2018-03-02T01:19:43.160Z,11.33
2018-03-02T01:21:46.570Z,10.57
2018-03-02T01:23:49.942Z,11.97
2018-03-02T01:25:53.313Z,10.97
2018-03-02T01:27:57.459Z,11.90
2018-03-02T01:30:00.645Z,13.07
2018-03-02T01:32:03.869Z,11.83
2018-03-02T01:34:07.048Z,14.23
2018-03-02T01:36:10.452Z,10.63
2018-03-02T01:38:13.640Z,11.43
2018-03-02T01:40:17.099Z,12.10
2018-03-02T01:42:20.464Z,11.57
2018-03-02T01:44:23.834Z,11.50
2018-03-02T01:46:27.328Z,12.60
2018-03-02T01:48:30.691Z,12.00
2018-03-02T01:50:34.154Z,13.20
2018-03-02T01:52:37.521Z,12.67
2018-03-02T01:54:41.644Z,11.97
2018-03-02T01:56:45.005Z,11.27
2018-03-02T01:58:48.375Z,12.60
2018-03-02T02:00:51.810Z,13.13
2018-03-02T02:02:55.190Z,12.47
2018-03-02T02:04:58.561Z,12.10
2018-03-02T02:07:01.930Z,13.80
2018-03-02T02:09:05.591Z,11.33
2018-03-02T02:11:09.719Z,11.93
2018-03-02T02:13:13.090Z,12.90
2018-03-02T02:15:16.470Z,13.00
2018-03-02T02:17:19.838Z,12.37
2018-03-02T02:19:23.204Z,13.13
2018-03-02T02:21:26.573Z,12.43
2018-03-02T02:23:29.934Z,13.63
2018-03-02T02:25:34.097Z,13.03
2018-03-02T02:27:37.457Z,12.43
2018-03-02T02:29:40.844Z,13.07
2018-03-02T02:31:44.974Z,12.90
2018-03-02T02:33:48.343Z,11.60
2018-03-02T02:35:52.482Z,13.13
2018-03-02T02:37:55.853Z,12.87
2018-03-02T02:39:59.216Z,13.13
2018-03-02T02:42:02.579Z,11.63
2018-03-02T02:44:05.937Z,13.03
2018-03-02T02:46:09.319Z,12.60
2018-03-02T02:48:12.685Z,12.83
2018-03-02T02:50:16.825Z,11.87
2018-03-02T02:52:20.196Z,12.70
2018-03-02T02:54:23.676Z,12.10
2018-03-02T02:56:27.045Z,11.73
2018-03-02T02:58:30.442Z,12.37
2018-03-02T03:00:33.865Z,12.57
2018-03-02T03:02:38.074Z,12.93
2018-03-02T03:04:42.214Z,11.97
2018-03-02T03:06:45.582Z,11.97
2018-03-02T03:08:49.722Z,13.73
2018-03-02T03:10:53.085Z,15.07
2018-03-02T03:12:57.221Z,13.40
2018-03-02T03:15:00.622Z,12.70
2018-03-02T03:17:03.983Z,12.03
2018-03-02T03:19:08.108Z,14.10
2018-03-02T03:21:11.490Z,11.83
2018-03-02T03:23:15.620Z,11.83
2018-03-02T03:25:18.991Z,12.33
2018-03-02T03:27:23.124Z,13.03
2018-03-02T03:29:26.541Z,14.93
2018-03-02T03:31:30.122Z,14.13
2018-03-02T03:33:33.534Z,14.00
2018-03-02T03:35:36.907Z,13.77
2018-03-02T03:37:40.278Z,16.47
2018-03-02T03:39:44.420Z,12.40
2018-03-02T03:41:47.775Z,15.00
2018-03-02T03:43:51.175Z,14.23
2018-03-02T03:45:54.665Z,12.97
2018-03-02T03:47:58.021Z,14.53
2018-03-02T03:50:01.385Z,15.73
2018-03-02T03:52:04.594Z,13.03
2018-03-02T03:54:07.972Z,13.60
2018-03-02T03:56:11.335Z,15.40
2018-03-02T03:58:14.721Z,14.67
2018-03-02T04:00:18.113Z,13.03
2018-03-02T04:02:21.506Z,15.67
2018-03-02T04:04:24.884Z,14.40
2018-03-02T04:06:28.306Z,14.47
2018-03-02T04:08:31.691Z,14.17
2018-03-02T04:10:34.868Z,14.47
2018-03-02T04:12:38.468Z,15.10
2018-03-02T04:14:41.838Z,14.43
2018-03-02T04:16:45.211Z,14.83
2018-03-02T04:18:48.718Z,13.83
2018-03-02T04:20:52.082Z,14.23
2018-03-02T04:22:55.496Z,14.77
2018-03-02T04:24:59.628Z,14.57
2018-03-02T04:27:02.992Z,14.37
2018-03-02T04:29:06.738Z,15.40
2018-03-02T04:31:10.100Z,14.10
2018-03-02T04:33:14.252Z,14.03
2018-03-02T04:35:17.640Z,13.60
2018-03-02T04:37:20.999Z,14.87
2018-03-02T04:39:25.197Z,14.07
2018-03-02T04:41:29.334Z,14.63
2018-03-02T04:43:32.701Z,14.00
2018-03-02T04:45:36.941Z,14.30
2018-03-02T04:47:40.313Z,13.63
2018-03-02T04:49:43.664Z,14.87
2018-03-02T04:51:47.116Z,14.50
2018-03-02T04:53:50.475Z,14.03
2018-03-02T04:55:54.200Z,13.50
2018-03-02T04:57:57.582Z,13.07
2018-03-02T05:00:01.320Z,14.90
2018-03-02T05:02:05.010Z,14.70
2018-03-02T05:04:08.381Z,15.73
2018-03-02T05:06:12.519Z,13.73
2018-03-02T05:08:15.907Z,14.13
2018-03-02T05:10:19.290Z,16.07
2018-03-02T05:12:22.682Z,14.00
2018-03-02T05:14:26.058Z,13.97
2018-03-02T05:16:30.199Z,13.80
2018-03-02T05:18:33.611Z,15.43
2018-03-02T05:20:36.969Z,14.33
2018-03-02T05:22:40.372Z,13.60
2018-03-02T05:24:43.744Z,19.47
2018-03-02T05:26:47.120Z,15.97
2018-03-02T05:28:51.286Z,15.10
2018-03-02T05:30:54.655Z,14.30
2018-03-02T05:32:58.098Z,13.63
2018-03-02T05:35:01.608Z,14.77
2018-03-02T05:37:05.759Z,14.70
2018-03-02T05:39:09.180Z,14.87
2018-03-02T05:41:12.583Z,14.33
2018-03-02T05:43:15.942Z,15.43
2018-03-02T05:45:19.340Z,14.27
2018-03-02T05:47:22.975Z,14.43
2018-03-02T05:49:27.539Z,14.37
2018-03-02T05:51:30.903Z,15.30
2018-03-02T05:53:35.204Z,14.93
2018-03-02T05:55:38.960Z,14.47
2018-03-02T05:57:42.316Z,15.27
2018-03-02T05:59:46.452Z,14.27
2018-03-02T06:01:49.852Z,15.00
2018-03-02T06:03:53.231Z,15.73
2018-03-02T06:05:56.656Z,14.70
2018-03-02T06:08:00.575Z,16.33
2018-03-02T06:10:04.019Z,13.40
2018-03-02T06:12:07.679Z,15.37
2018-03-02T06:14:12.152Z,15.13
2018-03-02T06:16:15.924Z,14.80
2018-03-02T06:18:19.662Z,14.80
2018-03-02T06:20:23.622Z,15.57
2018-03-02T06:22:28.406Z,15.23
2018-03-02T06:24:32.440Z,15.30
2018-03-02T06:26:36.882Z,15.80
2018-03-02T06:28:40.853Z,15.90
2018-03-02T06:30:44.503Z,16.57
2018-03-02T06:32:48.369Z,16.53
2018-03-02T06:34:52.798Z,16.10
2018-03-02T06:36:56.780Z,15.90
2018-03-02T06:39:00.800Z,18.13
2018-03-02T06:41:05.277Z,16.40
2018-03-02T06:43:09.629Z,15.70
2018-03-02T06:45:14.397Z,17.17
2018-03-02T06:47:18.507Z,15.20
2018-03-02T06:49:22.335Z,16.27
2018-03-02T06:51:26.238Z,17.03
2018-03-02T06:53:30.157Z,16.87
2018-03-02T06:55:34.097Z,15.07
2018-03-02T06:57:37.876Z,16.47
2018-03-02T06:59:41.833Z,17.23
2018-03-02T07:01:45.844Z,14.73
2018-03-02T07:03:49.613Z,16.30
2018-03-02T07:05:53.926Z,15.63
2018-03-02T07:07:58.795Z,15.83
2018-03-02T07:10:02.381Z,16.77
2018-03-02T07:12:06.182Z,15.60
2018-03-02T07:14:10.153Z,16.77
2018-03-02T07:16:14.143Z,16.70
2018-03-02T07:18:17.914Z,17.53
2018-03-02T07:20:21.817Z,16.27
2018-03-02T07:22:26.118Z,16.20
2018-03-02T07:24:30.024Z,15.90
2018-03-02T07:26:33.763Z,16.40
2018-03-02T07:28:37.535Z,16.90
2018-03-02T07:30:41.526Z,15.83
2018-03-02T07:32:45.326Z,15.90
2018-03-02T07:34:49.044Z,16.07
2018-03-02T07:36:53.152Z,17.30
2018-03-02T07:38:56.954Z,15.60
2018-03-02T07:41:00.542Z,16.47
2018-03-02T07:43:04.450Z,15.03
2018-03-02T07:45:07.936Z,16.30
2018-03-02T07:47:11.480Z,16.93
2018-03-02T07:49:15.144Z,16.67
2018-03-02T07:51:19.086Z,17.37
2018-03-02T07:53:24.013Z,16.90
2018-03-02T07:55:29.331Z,17.23
2018-03-02T07:57:33.015Z,17.33
2018-03-02T07:59:36.989Z,19.53
2018-03-02T08:01:40.611Z,17.47
2018-03-02T08:03:44.327Z,16.47
2018-03-02T08:05:47.936Z,15.47
2018-03-02T08:07:52.612Z,17.63
2018-03-02T08:09:56.227Z,17.70
2018-03-02T08:12:00.024Z,17.27
2018-03-02T08:14:03.882Z,17.73
2018-03-02T08:16:07.796Z,16.77
2018-03-02T08:18:11.735Z,17.17
2018-03-02T08:20:15.413Z,16.50
2018-03-02T08:22:19.007Z,18.07
2018-03-02T08:24:22.742Z,17.53
2018-03-02T08:26:34.548Z,16.67
2018-03-02T08:28:38.223Z,18.50
2018-03-02T08:30:41.841Z,16.70
2018-03-02T08:32:45.672Z,16.47
2018-03-02T08:34:50.557Z,19.10
2018-03-02T08:36:54.352Z,16.23
2018-03-02T08:38:58.560Z,17.17
2018-03-02T08:41:02.375Z,17.47
2018-03-02T08:43:06.287Z,17.57
2018-03-02T08:45:10.351Z,17.93
2018-03-02T08:47:14.348Z,17.53
2018-03-02T08:49:18.826Z,17.13
2018-03-02T08:51:22.823Z,18.23
2018-03-02T08:53:26.815Z,17.73
2018-03-02T08:55:30.614Z,17.33
2018-03-02T08:57:34.531Z,17.83
2018-03-02T08:59:38.232Z,18.60
2018-03-02T09:01:42.332Z,18.47
2018-03-02T09:03:45.984Z,18.87
2018-03-02T09:05:50.449Z,17.47
2018-03-02T09:07:54.345Z,16.77
2018-03-02T09:09:58.270Z,18.07
2018-03-02T09:12:02.074Z,17.23
2018-03-02T09:14:05.864Z,19.03
2018-03-02T09:16:09.664Z,18.37
2018-03-02T09:18:13.672Z,18.57
2018-03-02T09:20:17.670Z,18.33
2018-03-02T09:22:21.367Z,18.50
2018-03-02T09:24:26.572Z,19.53
2018-03-02T09:26:30.716Z,17.00
2018-03-02T09:28:34.742Z,18.30
2018-03-02T09:30:38.638Z,19.40
2018-03-02T09:32:42.315Z,18.83
2018-03-02T09:34:46.277Z,18.70
2018-03-02T09:36:50.064Z,17.20
2018-03-02T09:38:54.272Z,18.63
2018-03-02T09:40:57.884Z,18.30
2018-03-02T09:43:01.558Z,15.87
2018-03-02T09:45:05.252Z,18.30
2018-03-02T09:47:09.044Z,18.10
2018-03-02T09:49:12.740Z,19.37
2018-03-02T09:51:16.346Z,19.47
2018-03-02T09:53:19.944Z,18.40
2018-03-02T09:55:23.658Z,18.33
2018-03-02T09:57:27.454Z,18.60
2018-03-02T09:59:31.100Z,19.37
2018-03-02T10:01:34.846Z,17.53
2018-03-02T10:03:38.877Z,20.23
2018-03-02T10:05:42.714Z,20.13
2018-03-02T10:07:47.162Z,19.17
2018-03-02T10:09:50.768Z,18.33
2018-03-02T10:11:54.460Z,19.47
2018-03-02T10:13:58.214Z,17.77
2018-03-02T10:16:02.066Z,18.60
2018-03-02T10:18:05.805Z,18.57
2018-03-02T10:20:09.392Z,17.73
2018-03-02T10:22:13.073Z,18.77
2018-03-02T10:24:17.598Z,18.77
2018-03-02T10:26:21.294Z,19.07
2018-03-02T10:28:24.952Z,18.73
2018-03-02T10:30:28.803Z,18.70
2018-03-02T10:32:32.580Z,17.83
2018-03-02T10:34:36.200Z,17.67
2018-03-02T10:36:39.999Z,18.63
2018-03-02T10:38:43.779Z,19.10
2018-03-02T10:40:47.356Z,19.30
2018-03-02T10:42:51.092Z,17.30
2018-03-02T10:44:54.754Z,18.37
2018-03-02T10:46:58.381Z,20.00
2018-03-02T10:49:01.964Z,20.13
2018-03-02T10:51:05.575Z,17.43
2018-03-02T10:53:09.282Z,19.73
2018-03-02T10:55:13.096Z,18.37
2018-03-02T10:57:16.625Z,19.47
2018-03-02T10:59:20.269Z,19.23
2018-03-02T11:01:26.738Z,17.07
2018-03-02T11:03:30.195Z,19.43
2018-03-02T11:05:39.415Z,19.33
2018-03-02T11:07:43.068Z,20.23
2018-03-02T11:09:46.645Z,16.80
2018-03-02T11:11:50.356Z,19.07
2018-03-02T11:13:53.988Z,18.00
2018-03-02T11:15:57.666Z,17.77
2018-03-02T11:18:01.439Z,20.10
2018-03-02T11:20:05.147Z,19.10
2018-03-02T11:22:08.811Z,19.57
2018-03-02T11:24:12.460Z,21.10
2018-03-02T11:26:16.153Z,19.93
2018-03-02T11:28:19.830Z,19.03
2018-03-02T11:30:23.572Z,19.57
2018-03-02T11:32:27.339Z,18.87
2018-03-02T11:34:30.933Z,21.33
2018-03-02T11:36:34.656Z,19.03
2018-03-02T11:38:38.494Z,18.67
2018-03-02T11:40:42.889Z,18.30
2018-03-02T11:42:46.774Z,18.40
2018-03-02T11:44:50.486Z,20.17
2018-03-02T11:46:54.694Z,17.30
2018-03-02T11:48:58.528Z,19.50
2018-03-02T11:51:03.012Z,18.67
2018-03-02T11:53:06.545Z,20.57
2018-03-02T11:55:11.030Z,20.27
2018-03-02T11:57:14.809Z,20.33
2018-03-02T11:59:18.218Z,20.43
2018-03-02T12:01:21.845Z,20.57
2018-03-02T12:03:25.598Z,18.87
2018-03-02T12:05:29.220Z,21.00
2018-03-02T12:07:32.915Z,19.87
2018-03-02T12:09:36.609Z,20.37
2018-03-02T12:11:40.205Z,19.10
2018-03-02T12:13:44.109Z,21.70
2018-03-02T12:15:47.904Z,18.77
2018-03-02T12:17:51.997Z,20.27
2018-03-02T12:19:56.055Z,20.00
2018-03-02T12:21:59.855Z,19.03
2018-03-02T12:24:03.613Z,21.17
2018-03-02T12:26:07.441Z,20.63
2018-03-02T12:28:11.238Z,20.23
2018-03-02T12:30:15.045Z,19.00
2018-03-02T12:32:18.741Z,18.77
2018-03-02T12:34:22.427Z,19.60
2018-03-02T12:36:26.131Z,20.27
2018-03-02T12:38:29.928Z,18.70
2018-03-02T12:40:33.666Z,19.67
2018-03-02T12:42:37.228Z,19.80
2018-03-02T12:44:41.062Z,20.10
2018-03-02T12:46:46.039Z,21.20
2018-03-02T12:48:49.662Z,20.60
2018-03-02T12:50:54.292Z,18.77
2018-03-02T12:52:58.384Z,19.93
2018-03-02T12:55:02.054Z,20.73
2018-03-02T12:57:05.780Z,20.40
2018-03-02T12:59:09.398Z,19.60
2018-03-02T13:01:13.106Z,19.93
2018-03-02T13:03:18.349Z,20.53
2018-03-02T13:05:22.090Z,18.50
2018-03-02T13:07:26.138Z,20.17
2018-03-02T13:09:29.937Z,19.07
2018-03-02T13:11:33.539Z,20.27
2018-03-02T13:13:37.311Z,18.80
2018-03-02T13:15:41.430Z,18.47
2018-03-02T13:17:45.825Z,19.37
2018-03-02T13:19:49.756Z,21.27
2018-03-02T13:21:53.664Z,20.27
2018-03-02T13:23:57.363Z,17.47
2018-03-02T13:26:01.176Z,17.67
2018-03-02T13:28:16.132Z,18.67
2018-03-02T13:30:19.612Z,19.83
2018-03-02T13:32:22.973Z,18.80
2018-03-02T13:34:38.397Z,18.43
2018-03-02T13:36:41.768Z,19.53
2018-03-02T13:38:44.951Z,20.93
2018-03-02T13:40:59.745Z,21.13
2018-03-02T13:43:03.121Z,18.27
2018-03-02T13:45:06.528Z,19.40
2018-03-02T13:47:09.924Z,20.33
2018-03-02T13:49:25.077Z,20.20
2018-03-02T13:51:28.435Z,19.23
2018-03-02T13:53:31.816Z,18.10
2018-03-02T13:55:35.957Z,19.03
2018-03-02T13:57:50.691Z,18.60
2018-03-02T13:59:54.102Z,20.50
2018-03-02T14:01:57.483Z,18.40
2018-03-02T14:04:12.403Z,20.50
2018-03-02T14:06:15.798Z,21.23
2018-03-02T14:08:19.332Z,19.80
2018-03-02T14:10:22.728Z,19.47
2018-03-02T14:12:26.223Z,20.17
2018-03-02T14:14:29.593Z,19.20
2018-03-02T14:16:32.816Z,18.83
2018-03-02T14:18:36.187Z,20.73
2018-03-02T14:20:39.624Z,21.07
2018-03-02T14:22:42.993Z,18.90
2018-03-02T14:24:46.620Z,18.83
2018-03-02T14:26:50.820Z,18.83
2018-03-02T14:28:54.189Z,19.43
2018-03-02T14:30:57.670Z,18.87
2018-03-02T14:33:01.107Z,20.50
2018-03-02T14:35:04.500Z,19.67
2018-03-02T14:37:07.863Z,18.63
2018-03-02T14:39:11.228Z,21.57
2018-03-02T14:41:14.762Z,21.80
2018-03-02T14:43:18.858Z,23.03
2018-03-02T14:45:22.248Z,20.57
2018-03-02T14:47:25.612Z,24.53
2018-03-02T14:49:29.979Z,23.20
2018-03-02T14:51:33.526Z,25.33
2018-03-02T14:53:37.675Z,30.50
2018-03-02T14:55:41.436Z,31.27
2018-03-02T14:57:44.837Z,27.87
2018-03-02T14:59:48.262Z,34.33
2018-03-02T15:01:51.686Z,28.23
2018-03-02T15:03:55.048Z,35.53
2018-03-02T15:05:58.422Z,34.87
2018-03-02T15:08:01.926Z,30.17
2018-03-02T15:10:05.311Z,35.03
2018-03-02T15:12:08.914Z,34.30
2018-03-02T15:14:13.048Z,32.13
2018-03-02T15:16:17.029Z,30.67
2018-03-02T15:18:20.392Z,29.63
2018-03-02T15:20:24.519Z,31.57
2018-03-02T15:22:27.897Z,31.07
2018-03-02T15:24:32.198Z,31.17
2018-03-02T15:26:35.731Z,32.83
2018-03-02T15:28:39.325Z,32.40
2018-03-02T15:30:42.795Z,32.07
2018-03-02T15:32:46.324Z,29.40
2018-03-02T15:34:49.690Z,30.07
2018-03-02T15:36:53.866Z,31.93
2018-03-02T15:38:57.530Z,29.57
2018-03-02T15:41:01.392Z,28.87
2018-03-02T15:43:05.115Z,29.13
2018-03-02T15:45:08.623Z,25.30
2018-03-02T15:47:12.227Z,30.17
2018-03-02T15:49:16.446Z,29.30
2018-03-02T15:51:20.128Z,26.80
2018-03-02T15:53:23.802Z,29.00
2018-03-02T15:55:28.265Z,26.33
2018-03-02T15:57:32.162Z,25.03
2018-03-02T15:59:35.643Z,25.77
2018-03-02T16:01:39.107Z,25.70
2018-03-02T16:03:42.843Z,21.30
2018-03-02T16:05:46.437Z,25.83
2018-03-02T16:07:50.045Z,24.40
2018-03-02T16:09:53.629Z,25.00
2018-03-02T16:11:58.778Z,24.13
2018-03-02T16:14:02.250Z,22.20
2018-03-02T16:16:05.637Z,25.13
2018-03-02T16:18:09.094Z,24.63
2018-03-02T16:20:12.544Z,22.13
2018-03-02T16:22:16.160Z,22.27
2018-03-02T16:24:19.709Z,23.70
2018-03-02T16:26:24.970Z,21.20
2018-03-02T16:28:28.459Z,22.07
2018-03-02T16:30:31.955Z,20.83
2018-03-02T16:32:35.376Z,19.13
2018-03-02T16:34:38.944Z,21.47
2018-03-02T16:36:42.440Z,19.97
2018-03-02T16:38:46.074Z,20.93
2018-03-02T16:40:49.439Z,21.17
2018-03-02T16:42:52.822Z,20.67
2018-03-02T16:44:56.190Z,20.90
2018-03-02T16:47:00.425Z,22.27
2018-03-02T16:49:06.991Z,18.87
2018-03-02T16:51:10.354Z,19.50
2018-03-02T16:53:14.517Z,21.40
2018-03-02T16:55:18.092Z,21.57
2018-03-02T16:57:22.000Z,19.67
2018-03-02T16:59:25.805Z,21.20
2018-03-02T17:01:29.290Z,19.20
2018-03-02T17:03:32.811Z,18.77
2018-03-02T17:05:37.031Z,19.70
2018-03-02T17:07:40.627Z,20.80
2018-03-02T17:09:44.063Z,21.53
2018-03-02T17:11:48.309Z,19.93
2018-03-02T17:13:51.674Z,19.47
2018-03-02T17:15:55.038Z,19.30
2018-03-02T17:17:58.417Z,21.50
2018-03-02T17:20:01.787Z,18.47
2018-03-02T17:22:05.154Z,20.43
2018-03-02T17:24:08.529Z,19.23
2018-03-02T17:26:12.476Z,19.10
2018-03-02T17:28:15.858Z,18.67
2018-03-02T17:30:19.222Z,19.93
2018-03-02T17:32:22.582Z,18.00
2018-03-02T17:34:26.153Z,20.23
2018-03-02T17:36:29.532Z,19.10
2018-03-02T17:38:33.105Z,18.40
2018-03-02T17:40:37.319Z,20.07
2018-03-02T17:42:40.697Z,20.47
2018-03-02T17:44:44.826Z,18.37
2018-03-02T17:46:48.201Z,20.10
2018-03-02T17:48:51.723Z,19.53
2018-03-02T17:50:55.178Z,19.53
2018-03-02T17:52:59.539Z,17.47
2018-03-02T17:55:02.965Z,18.60
2018-03-02T17:57:06.497Z,18.60
2018-03-02T17:59:10.045Z,19.37
2018-03-02T18:01:13.711Z,18.53
2018-03-02T18:03:17.096Z,18.27
2018-03-02T18:05:20.606Z,19.73
2018-03-02T18:07:23.995Z,18.67
2018-03-02T18:09:27.453Z,18.33
2018-03-02T18:11:30.851Z,18.83
2018-03-02T18:13:34.296Z,19.90
2018-03-02T18:15:37.670Z,19.60
2018-03-02T18:17:41.038Z,18.87
2018-03-02T18:19:44.583Z,17.97
2018-03-02T18:21:47.977Z,17.70
2018-03-02T18:23:51.354Z,17.90
2018-03-02T18:25:54.727Z,18.60
2018-03-02T18:27:58.105Z,18.50
2018-03-02T18:30:01.474Z,20.53
2018-03-02T18:32:05.869Z,19.03
2018-03-02T18:34:09.523Z,17.70
2018-03-02T18:36:12.989Z,17.43
2018-03-02T18:38:17.128Z,17.30
2018-03-02T18:40:20.484Z,20.53
2018-03-02T18:42:24.630Z,16.93
2018-03-02T18:44:28.006Z,19.30
2018-03-02T18:46:31.398Z,16.67
2018-03-02T18:48:34.796Z,18.40
2018-03-02T18:50:38.169Z,18.40
2018-03-02T18:52:42.582Z,18.87
2018-03-02T18:54:47.030Z,18.70
2018-03-02T18:56:50.679Z,18.23
2018-03-02T18:58:54.850Z,18.27
2018-03-02T19:00:58.654Z,17.60
2018-03-02T19:03:02.032Z,17.77
2018-03-02T19:05:05.632Z,17.53
2018-03-02T19:07:09.333Z,17.83
2018-03-02T19:09:13.345Z,17.57
2018-03-02T19:11:17.650Z,18.40
2018-03-02T19:13:21.018Z,18.43
2018-03-02T19:15:24.896Z,19.20
2018-03-02T19:17:28.675Z,17.77
2018-03-02T19:19:32.550Z,17.63
2018-03-02T19:21:36.212Z,18.60
2018-03-02T19:23:40.495Z,18.03
2018-03-02T19:25:44.065Z,18.00
2018-03-02T19:27:47.656Z,18.43
2018-03-02T19:29:51.160Z,17.00
2018-03-02T19:31:54.955Z,17.97
2018-03-02T19:33:58.358Z,18.33
2018-03-02T19:36:01.738Z,18.17
2018-03-02T19:38:05.148Z,18.97
2018-03-02T19:40:08.529Z,17.13
2018-03-02T19:42:11.896Z,18.50
2018-03-02T19:44:15.264Z,22.20
2018-03-02T19:46:18.700Z,19.97
2018-03-02T19:48:22.086Z,17.63
2018-03-02T19:50:25.466Z,18.57
2018-03-02T19:52:29.597Z,20.53
2018-03-02T19:54:32.969Z,18.43
2018-03-02T19:56:36.328Z,18.43
2018-03-02T19:58:39.690Z,18.27
2018-03-02T20:00:43.073Z,20.10
2018-03-02T20:02:46.482Z,18.53
2018-03-02T20:04:49.900Z,21.00
2018-03-02T20:06:53.904Z,19.17
2018-03-02T20:08:57.902Z,22.53
2018-03-02T20:11:01.559Z,20.03
2018-03-02T20:13:04.792Z,22.73
2018-03-02T20:15:08.158Z,25.90
2018-03-02T20:17:11.766Z,28.73
2018-03-02T20:19:15.440Z,29.43
2018-03-02T20:21:19.597Z,30.80
2018-03-02T20:23:24.318Z,37.43
2018-03-02T20:25:28.583Z,32.97
2018-03-02T20:27:32.601Z,34.57
2018-03-02T20:29:36.192Z,35.57
2018-03-02T20:31:39.805Z,34.33
2018-03-02T20:33:43.231Z,30.80
2018-03-02T20:35:46.846Z,33.07
2018-03-02T20:37:51.871Z,29.10
2018-03-02T20:39:55.374Z,35.23
2018-03-02T20:41:59.894Z,33.73
2018-03-02T20:44:03.834Z,31.20
2018-03-02T20:46:09.096Z,32.27
2018-03-02T20:48:12.665Z,27.63
2018-03-02T20:50:16.171Z,32.73
2018-03-02T20:52:19.665Z,34.13
2018-03-02T20:54:23.652Z,28.83
2018-03-02T20:56:29.000Z,30.57
2018-03-02T20:58:34.023Z,27.57
2018-03-02T21:00:37.450Z,28.13
2018-03-02T21:02:40.902Z,27.40
2018-03-02T21:04:44.393Z,27.73
2018-03-02T21:06:48.306Z,26.33
2018-03-02T21:08:52.459Z,28.43
2018-03-02T21:10:57.372Z,27.40
2018-03-02T21:13:00.767Z,27.50
2018-03-02T21:15:04.176Z,29.30
2018-03-02T21:17:07.965Z,30.43
2018-03-02T21:19:11.324Z,25.97
2018-03-02T21:21:15.439Z,27.97
2018-03-02T21:23:18.861Z,25.97
2018-03-02T21:25:22.733Z,28.17
2018-03-02T21:27:26.342Z,23.60
2018-03-02T21:29:29.748Z,26.97
2018-03-02T21:31:33.123Z,26.03
2018-03-02T21:33:36.712Z,27.43
2018-03-02T21:35:40.202Z,24.53
2018-03-02T21:37:43.601Z,23.90
2018-03-02T21:39:46.963Z,25.30
2018-03-02T21:41:50.388Z,24.60
2018-03-02T21:43:53.783Z,26.93
2018-03-02T21:45:57.383Z,24.43
2018-03-02T21:48:01.171Z,28.40
2018-03-02T21:50:04.677Z,22.43
2018-03-02T21:52:08.164Z,23.87
2018-03-02T21:54:11.580Z,22.10
2018-03-02T21:56:14.958Z,27.67
2018-03-02T21:58:18.237Z,24.93
2018-03-02T22:00:21.629Z,23.13
2018-03-02T22:02:24.998Z,26.23
2018-03-02T22:04:28.401Z,21.90
2018-03-02T22:06:31.805Z,24.47
2018-03-02T22:08:35.220Z,24.63
2018-03-02T22:10:38.620Z,22.03
2018-03-02T22:12:41.995Z,23.53
2018-03-02T22:14:45.398Z,25.23
2018-03-02T22:16:48.795Z,24.27
2018-03-02T22:18:52.286Z,22.40
2018-03-02T22:20:55.740Z,23.97
2018-03-02T22:22:59.244Z,21.50
2018-03-02T22:25:02.677Z,23.30
2018-03-02T22:27:06.070Z,20.73
2018-03-02T22:29:09.496Z,22.20
2018-03-02T22:31:13.677Z,21.07
2018-03-02T22:33:17.063Z,21.30
2018-03-02T22:35:20.456Z,22.37
2018-03-02T22:37:23.838Z,22.73
2018-03-02T22:39:27.310Z,19.87
2018-03-02T22:41:30.711Z,20.60
2018-03-02T22:43:34.083Z,20.60
2018-03-02T22:45:37.696Z,22.50
2018-03-02T22:47:41.070Z,20.83
2018-03-02T22:49:44.450Z,23.00
2018-03-02T22:51:48.626Z,20.83
2018-03-02T22:53:52.052Z,22.67
2018-03-02T22:55:56.295Z,19.97
2018-03-02T22:57:59.708Z,20.73
2018-03-02T23:00:03.111Z,20.60
2018-03-02T23:02:06.575Z,20.40
2018-03-02T23:04:09.966Z,19.47
2018-03-02T23:06:13.461Z,20.30
2018-03-02T23:08:16.834Z,21.70
2018-03-02T23:10:20.258Z,22.87
2018-03-02T23:12:23.698Z,21.50
2018-03-02T23:14:27.864Z,20.67
2018-03-02T23:16:31.345Z,20.93
2018-03-02T23:18:34.889Z,20.57
2018-03-02T23:20:39.158Z,24.57
2018-03-02T23:22:42.581Z,21.50
2018-03-02T23:24:46.033Z,20.50
2018-03-02T23:26:49.450Z,20.97
2018-03-02T23:28:52.853Z,20.50
2018-03-02T23:30:56.318Z,21.80
2018-03-02T23:32:59.787Z,21.00
2018-03-02T23:35:03.168Z,20.23
2018-03-02T23:37:07.306Z,20.53
2018-03-02T23:39:12.450Z,21.63
2018-03-02T23:41:15.890Z,21.17
2018-03-02T23:43:19.262Z,19.80
2018-03-02T23:45:22.675Z,21.50
2018-03-02T23:47:26.086Z,20.73
2018-03-02T23:49:30.265Z,22.67
2018-03-02T23:51:33.697Z,19.70
2018-03-02T23:53:38.962Z,20.30
2018-03-02T23:55:42.456Z,22.33
2018-03-02T23:57:45.862Z,24.93
2018-03-02T23:59:49.280Z,21.33
